createdAt,value
2019-01-29T00:01:35.462Z,9.67
2019-01-29T00:04:07.329Z,9.66
2019-01-29T00:06:40.110Z,9.54
2019-01-29T00:09:13.193Z,9.46
2019-01-29T00:11:47.411Z,9.91
2019-01-29T00:14:18.682Z,10.09
2019-01-29T00:16:50.621Z,9.52
2019-01-29T00:19:23.968Z,9.34
2019-01-29T00:21:55.601Z,9.75
2019-01-29T00:24:27.937Z,9.85
2019-01-29T00:27:00.000Z,9.57
2019-01-29T00:29:33.025Z,9.83
2019-01-29T00:32:05.004Z,9.78
2019-01-29T00:34:36.217Z,9.91
2019-01-29T00:37:08.323Z,9.75
2019-01-29T00:39:42.182Z,10.02
2019-01-29T00:42:13.338Z,9.52
2019-01-29T00:44:46.550Z,9.81
2019-01-29T00:47:18.626Z,9.34
2019-01-29T00:49:54.976Z,9.67
2019-01-29T00:52:26.796Z,9.57
2019-01-29T00:54:59.729Z,9.24
2019-01-29T00:57:31.090Z,9.33
2019-01-29T01:00:04.320Z,9.48
2019-01-29T01:02:35.207Z,9.58
2019-01-29T01:05:08.321Z,8.82
2019-01-29T01:07:43.971Z,9.04
2019-01-29T01:10:19.459Z,9.21
2019-01-29T01:12:51.751Z,9.31
2019-01-29T01:15:27.707Z,9.15
2019-01-29T01:17:59.481Z,9.31
2019-01-29T01:20:30.916Z,9.52
2019-01-29T01:23:02.817Z,9.76
2019-01-29T01:25:37.954Z,8.91
2019-01-29T01:28:09.808Z,9.00
2019-01-29T01:30:42.614Z,9.42
2019-01-29T01:33:13.500Z,9.25
2019-01-29T01:35:44.911Z,9.09
2019-01-29T01:38:16.411Z,9.21
2019-01-29T01:40:49.334Z,9.33
2019-01-29T01:43:23.182Z,9.57
2019-01-29T01:45:54.921Z,9.64
2019-01-29T01:48:25.428Z,8.55
2019-01-29T01:50:57.870Z,8.93
2019-01-29T01:53:30.202Z,9.13
2019-01-29T01:56:05.062Z,9.42
2019-01-29T01:58:36.358Z,9.19
2019-01-29T02:01:10.497Z,9.32
2019-01-29T02:03:41.280Z,9.37
2019-01-29T02:06:15.673Z,9.48
2019-01-29T02:08:49.520Z,9.40
2019-01-29T02:11:24.556Z,9.63
2019-01-29T02:13:57.407Z,9.75
2019-01-29T02:16:28.833Z,9.73
2019-01-29T02:19:03.159Z,9.79
2019-01-29T02:21:35.291Z,9.80
2019-01-29T02:24:09.911Z,9.62
2019-01-29T02:26:43.329Z,9.74
2019-01-29T02:29:14.763Z,9.78
2019-01-29T02:31:50.492Z,9.99
2019-01-29T02:34:22.271Z,10.04
2019-01-29T02:36:55.022Z,9.86
2019-01-29T02:39:27.402Z,9.35
2019-01-29T02:42:01.382Z,9.62
2019-01-29T02:44:37.465Z,9.79
2019-01-29T02:47:11.602Z,9.75
2019-01-29T02:49:44.387Z,9.43
2019-01-29T02:52:16.798Z,9.73
2019-01-29T02:54:51.078Z,9.93
2019-01-29T02:57:23.506Z,10.11
2019-01-29T02:59:54.696Z,10.14
2019-01-29T03:02:27.294Z,9.92
2019-01-29T03:05:00.596Z,9.64
2019-01-29T03:07:34.399Z,9.96
2019-01-29T03:10:10.212Z,9.29
2019-01-29T03:12:43.825Z,9.45
2019-01-29T03:15:18.720Z,8.87
2019-01-29T03:17:53.608Z,9.32
2019-01-29T03:20:26.287Z,9.34
2019-01-29T03:23:01.093Z,9.37
2019-01-29T03:25:33.164Z,8.54
2019-01-29T03:28:07.355Z,8.85
2019-01-29T03:30:39.277Z,8.99
2019-01-29T03:33:11.860Z,8.07
2019-01-29T03:35:51.369Z,8.93
2019-01-29T03:38:22.343Z,9.10
2019-01-29T03:40:52.708Z,8.77
2019-01-29T03:43:26.926Z,8.78
2019-01-29T03:45:58.949Z,9.07
2019-01-29T03:48:31.035Z,9.41
2019-01-29T03:51:03.786Z,9.28
2019-01-29T03:53:38.123Z,9.51
2019-01-29T03:56:14.353Z,9.71
2019-01-29T03:58:47.754Z,9.92
2019-01-29T04:01:22.065Z,9.66
2019-01-29T04:03:53.808Z,9.34
2019-01-29T04:06:29.212Z,9.13
2019-01-29T04:09:00.949Z,9.23
2019-01-29T04:11:33.692Z,9.51
2019-01-29T04:14:05.644Z,9.32
2019-01-29T04:16:38.905Z,9.49
2019-01-29T04:19:17.411Z,9.70
2019-01-29T04:21:48.970Z,9.78
2019-01-29T04:24:21.927Z,9.97
2019-01-29T04:26:55.641Z,8.90
2019-01-29T04:29:32.857Z,9.10
2019-01-29T04:32:06.132Z,9.46
2019-01-29T04:34:39.727Z,9.85
2019-01-29T04:37:19.040Z,9.61
2019-01-29T04:39:51.413Z,9.39
2019-01-29T04:42:21.968Z,9.78
2019-01-29T04:44:55.707Z,9.89
2019-01-29T04:47:28.431Z,9.95
2019-01-29T04:50:01.075Z,9.61
2019-01-29T04:52:32.566Z,9.79
2019-01-29T04:55:04.096Z,10.01
2019-01-29T04:57:36.216Z,9.91
2019-01-29T05:00:27.769Z,9.79
2019-01-29T05:02:59.822Z,9.08
2019-01-29T05:05:33.298Z,9.59
2019-01-29T05:08:03.926Z,9.77
2019-01-29T05:10:35.630Z,9.06
2019-01-29T05:13:09.648Z,9.44
2019-01-29T05:15:43.943Z,9.66
2019-01-29T05:18:15.409Z,9.53
2019-01-29T05:20:49.611Z,9.56
2019-01-29T05:23:21.098Z,9.77
2019-01-29T05:25:52.867Z,9.46
2019-01-29T05:28:25.947Z,9.47
2019-01-29T05:30:58.855Z,9.50
2019-01-29T05:33:29.110Z,9.95
2019-01-29T05:36:01.994Z,9.69
2019-01-29T05:38:37.944Z,10.04
2019-01-29T05:41:10.267Z,10.02
2019-01-29T05:43:41.902Z,9.94
2019-01-29T05:46:14.391Z,9.50
2019-01-29T05:48:46.194Z,9.31
2019-01-29T05:51:18.901Z,8.97
2019-01-29T05:53:50.184Z,8.03
2019-01-29T05:56:28.565Z,8.79
2019-01-29T05:59:01.733Z,9.19
2019-01-29T06:01:35.217Z,8.83
2019-01-29T06:04:07.256Z,8.33
2019-01-29T06:06:46.295Z,8.54
2019-01-29T06:09:17.954Z,8.93
2019-01-29T06:11:50.379Z,9.48
2019-01-29T06:14:23.753Z,9.39
2019-01-29T06:16:55.385Z,9.45
2019-01-29T06:19:25.800Z,9.55
2019-01-29T06:21:57.984Z,9.45
2019-01-29T06:24:29.152Z,9.29
2019-01-29T06:27:02.987Z,9.77
2019-01-29T06:29:37.051Z,9.95
2019-01-29T06:32:10.807Z,10.00
2019-01-29T06:34:45.371Z,10.00
2019-01-29T06:37:16.943Z,10.21
2019-01-29T06:39:48.184Z,10.35
2019-01-29T06:42:20.250Z,10.06
2019-01-29T06:44:50.840Z,9.82
2019-01-29T06:47:24.989Z,10.33
2019-01-29T06:49:56.362Z,10.36
2019-01-29T06:52:28.204Z,10.51
2019-01-29T06:54:59.683Z,10.21
2019-01-29T06:57:31.961Z,10.16
2019-01-29T07:00:03.651Z,9.43
2019-01-29T07:02:37.064Z,9.90
2019-01-29T07:05:07.875Z,9.75
2019-01-29T07:07:38.928Z,9.82
2019-01-29T07:10:13.673Z,9.95
2019-01-29T07:12:47.565Z,9.40
2019-01-29T07:15:39.643Z,9.48
2019-01-29T07:18:31.167Z,9.43
2019-01-29T07:21:07.291Z,9.65
2019-01-29T07:23:41.247Z,9.62
2019-01-29T07:26:13.167Z,9.42
2019-01-29T07:28:43.852Z,9.96
2019-01-29T07:31:17.824Z,9.49
2019-01-29T07:33:54.891Z,9.98
2019-01-29T07:36:25.764Z,10.05
2019-01-29T07:38:59.941Z,9.78
2019-01-29T07:41:36.129Z,9.59
2019-01-29T07:44:08.316Z,9.34
2019-01-29T07:46:40.385Z,9.90
2019-01-29T07:49:11.749Z,9.84
2019-01-29T07:51:45.655Z,10.14
2019-01-29T07:54:17.401Z,9.65
2019-01-29T07:56:48.324Z,9.74
2019-01-29T07:59:32.382Z,9.22
2019-01-29T08:01:54.687Z,9.71
2019-01-29T08:04:33.435Z,9.76
2019-01-29T08:07:04.427Z,9.47
2019-01-29T08:09:37.145Z,9.92
2019-01-29T08:12:11.170Z,10.16
2019-01-29T08:14:43.221Z,9.71
2019-01-29T08:17:17.264Z,9.68
2019-01-29T08:19:49.456Z,10.24
2019-01-29T08:22:22.634Z,10.40
2019-01-29T08:25:01.709Z,9.79
2019-01-29T08:27:28.751Z,9.18
2019-01-29T08:29:59.093Z,9.66
2019-01-29T08:32:29.680Z,10.02
2019-01-29T08:35:02.930Z,10.09
2019-01-29T08:37:33.968Z,8.85
2019-01-29T08:40:09.084Z,9.17
2019-01-29T08:42:42.491Z,9.41
2019-01-29T08:45:14.389Z,8.79
2019-01-29T08:47:46.508Z,8.92
2019-01-29T08:50:22.106Z,9.86
2019-01-29T08:52:53.376Z,9.54
2019-01-29T08:55:28.464Z,8.91
2019-01-29T08:58:03.737Z,9.54
2019-01-29T09:00:38.089Z,9.72
2019-01-29T09:03:08.947Z,9.98
2019-01-29T09:05:50.173Z,10.22
2019-01-29T09:08:22.342Z,9.70
2019-01-29T09:10:53.539Z,9.66
2019-01-29T09:13:28.771Z,8.67
2019-01-29T09:16:00.719Z,9.20
2019-01-29T09:18:34.150Z,9.50
2019-01-29T09:21:06.597Z,9.77
2019-01-29T09:23:39.369Z,9.45
2019-01-29T09:26:11.806Z,9.74
2019-01-29T09:28:43.969Z,9.26
2019-01-29T09:31:16.522Z,9.22
2019-01-29T09:33:48.462Z,9.43
2019-01-29T09:36:20.588Z,10.07
2019-01-29T09:38:53.713Z,9.51
2019-01-29T09:41:25.169Z,10.09
2019-01-29T09:43:59.087Z,9.65
2019-01-29T09:46:31.235Z,10.11
2019-01-29T09:49:03.311Z,10.00
2019-01-29T09:51:38.233Z,9.84
2019-01-29T09:54:15.756Z,10.29
2019-01-29T09:56:54.840Z,10.39
2019-01-29T09:59:25.119Z,10.28
2019-01-29T10:01:56.616Z,11.09
2019-01-29T10:04:28.587Z,11.16
2019-01-29T10:07:00.858Z,11.12
2019-01-29T10:09:33.121Z,10.99
2019-01-29T10:12:05.660Z,11.00
2019-01-29T10:14:36.951Z,10.85
2019-01-29T10:17:09.641Z,11.06
2019-01-29T10:19:44.194Z,11.69
2019-01-29T10:22:17.121Z,11.98
2019-01-29T10:24:48.779Z,12.14
2019-01-29T10:27:20.527Z,11.99
2019-01-29T10:29:53.420Z,12.27
2019-01-29T10:32:26.499Z,11.90
2019-01-29T10:34:57.722Z,12.05
2019-01-29T10:37:30.220Z,11.10
2019-01-29T10:40:03.594Z,11.70
2019-01-29T10:42:36.243Z,12.21
2019-01-29T10:45:12.238Z,11.96
2019-01-29T10:47:44.781Z,10.60
2019-01-29T10:50:21.046Z,10.97
2019-01-29T10:52:56.390Z,10.85
2019-01-29T10:55:32.342Z,11.55
2019-01-29T10:58:02.995Z,10.86
2019-01-29T11:00:37.165Z,9.87
2019-01-29T11:03:20.605Z,10.36
2019-01-29T11:05:54.860Z,10.85
2019-01-29T11:08:26.636Z,11.15
2019-01-29T11:10:58.702Z,11.36
2019-01-29T11:13:30.436Z,12.19
2019-01-29T11:16:01.639Z,12.80
2019-01-29T11:18:33.064Z,13.03
2019-01-29T11:21:07.835Z,13.15
2019-01-29T11:23:42.408Z,10.94
2019-01-29T11:26:13.789Z,11.53
2019-01-29T11:28:45.485Z,12.24
2019-01-29T11:31:18.882Z,12.88
2019-01-29T11:33:50.272Z,13.86
2019-01-29T11:36:21.951Z,14.25
2019-01-29T11:38:55.951Z,13.63
2019-01-29T11:41:27.191Z,13.30
2019-01-29T11:44:00.594Z,11.23
2019-01-29T11:46:33.419Z,11.80
2019-01-29T11:49:05.772Z,11.40
2019-01-29T11:51:37.645Z,12.12
2019-01-29T11:54:10.519Z,11.79
2019-01-29T11:56:41.791Z,10.55
2019-01-29T11:59:14.588Z,11.09
2019-01-29T12:01:45.838Z,10.87
2019-01-29T12:04:19.110Z,11.42
2019-01-29T12:06:50.279Z,11.30
2019-01-29T12:09:23.392Z,11.77
2019-01-29T12:11:55.099Z,12.35
2019-01-29T12:14:33.102Z,12.52
2019-01-29T12:17:05.570Z,12.10
2019-01-29T12:19:38.784Z,11.46
2019-01-29T12:22:12.045Z,11.22
2019-01-29T12:24:44.603Z,11.55
2019-01-29T12:27:16.404Z,11.16
2019-01-29T12:29:48.809Z,10.39
2019-01-29T12:32:20.900Z,9.95
2019-01-29T12:34:51.961Z,10.05
2019-01-29T12:37:23.967Z,10.45
2019-01-29T12:39:58.049Z,11.02
2019-01-29T12:42:32.094Z,11.91
2019-01-29T12:45:06.079Z,12.37
2019-01-29T12:47:37.416Z,11.28
2019-01-29T12:50:12.520Z,11.17
2019-01-29T12:52:51.485Z,11.28
2019-01-29T12:55:23.204Z,12.38
2019-01-29T12:57:53.741Z,12.14
2019-01-29T13:00:26.727Z,12.08
2019-01-29T13:02:58.631Z,12.37
2019-01-29T13:05:32.721Z,11.20
2019-01-29T13:08:05.848Z,11.86
2019-01-29T13:10:38.509Z,12.33
2019-01-29T13:13:11.016Z,13.32
2019-01-29T13:15:42.761Z,13.87
2019-01-29T13:18:14.101Z,13.46
2019-01-29T13:20:46.969Z,14.27
2019-01-29T13:23:21.811Z,14.78
2019-01-29T13:25:55.997Z,14.43
2019-01-29T13:28:27.373Z,13.72
2019-01-29T13:31:02.258Z,13.28
2019-01-29T13:33:35.451Z,12.12
2019-01-29T13:36:08.681Z,12.13
2019-01-29T13:38:40.873Z,12.30
2019-01-29T13:41:13.512Z,12.42
2019-01-29T13:43:45.107Z,11.97
2019-01-29T13:46:16.969Z,12.66
2019-01-29T13:48:48.693Z,11.01
2019-01-29T13:51:23.030Z,11.14
2019-01-29T13:53:55.664Z,11.63
2019-01-29T13:56:38.579Z,11.49
2019-01-29T13:59:03.287Z,11.88
2019-01-29T14:01:36.064Z,11.24
2019-01-29T14:04:08.998Z,11.63
2019-01-29T14:06:52.522Z,11.29
2019-01-29T14:09:43.080Z,11.13
2019-01-29T14:12:30.560Z,11.47
2019-01-29T14:15:14.656Z,11.20
2019-01-29T14:18:08.029Z,11.16
2019-01-29T14:20:55.225Z,10.16
2019-01-29T14:23:28.854Z,10.48
2019-01-29T14:26:03.980Z,10.86
2019-01-29T14:28:36.598Z,10.43
2019-01-29T14:31:10.946Z,9.97
2019-01-29T14:33:44.428Z,10.12
2019-01-29T14:36:18.957Z,9.96
2019-01-29T14:39:50.061Z,9.68
2019-01-29T14:42:21.559Z,9.76
2019-01-29T14:44:56.544Z,9.18
2019-01-29T14:47:34.154Z,9.80
2019-01-29T14:50:05.165Z,9.85
2019-01-29T14:52:38.398Z,9.05
2019-01-29T14:55:11.764Z,9.78
2019-01-29T14:57:47.506Z,9.72
2019-01-29T15:00:25.273Z,9.28
2019-01-29T15:02:56.637Z,9.34
2019-01-29T15:05:29.450Z,9.31
2019-01-29T15:08:06.800Z,8.32
2019-01-29T15:10:39.286Z,8.54
2019-01-29T15:13:10.494Z,8.60
2019-01-29T15:15:47.424Z,9.02
2019-01-29T15:18:28.513Z,9.40
2019-01-29T15:21:00.562Z,9.32
2019-01-29T15:23:34.472Z,9.83
2019-01-29T15:26:05.701Z,9.71
2019-01-29T15:28:36.999Z,9.90
2019-01-29T15:31:10.473Z,10.01
2019-01-29T15:33:42.527Z,9.96
2019-01-29T15:36:13.764Z,10.51
2019-01-29T15:38:45.319Z,10.39
2019-01-29T15:41:15.754Z,10.26
2019-01-29T15:43:47.256Z,10.30
2019-01-29T15:46:21.610Z,10.17
2019-01-29T15:48:54.991Z,10.01
2019-01-29T15:51:26.856Z,9.90
2019-01-29T15:54:00.355Z,10.05
2019-01-29T15:56:32.879Z,9.95
2019-01-29T15:59:04.187Z,9.83
2019-01-29T16:01:37.104Z,9.58
2019-01-29T16:04:08.977Z,9.66
2019-01-29T16:06:42.727Z,9.48
2019-01-29T16:09:13.124Z,9.36
2019-01-29T16:11:45.591Z,9.40
2019-01-29T16:14:17.875Z,9.48
2019-01-29T16:17:08.295Z,9.00
2019-01-29T16:19:41.476Z,9.15
2019-01-29T16:22:13.669Z,9.14
2019-01-29T16:24:47.279Z,9.06
2019-01-29T16:27:22.824Z,9.03
2019-01-29T16:29:55.454Z,8.88
2019-01-29T16:32:28.688Z,9.13
2019-01-29T16:35:00.810Z,9.27
2019-01-29T16:37:34.024Z,9.01
2019-01-29T16:40:05.415Z,9.22
2019-01-29T16:42:39.062Z,9.01
2019-01-29T16:45:16.641Z,9.01
2019-01-29T16:47:48.599Z,8.91
2019-01-29T16:50:21.944Z,8.72
2019-01-29T16:52:54.086Z,8.43
2019-01-29T16:55:25.175Z,8.09
2019-01-29T16:57:57.512Z,8.43
2019-01-29T17:00:34.073Z,8.11
2019-01-29T17:03:07.871Z,8.50
2019-01-29T17:05:40.761Z,8.65
2019-01-29T17:08:15.762Z,8.38
2019-01-29T17:10:48.474Z,8.34
2019-01-29T17:13:20.761Z,8.27
2019-01-29T17:15:51.906Z,8.40
2019-01-29T17:18:24.774Z,8.67
2019-01-29T17:20:57.786Z,8.68
2019-01-29T17:23:29.351Z,8.95
2019-01-29T17:26:02.736Z,8.85
2019-01-29T17:28:35.146Z,8.86
2019-01-29T17:31:06.765Z,9.36
2019-01-29T17:33:40.482Z,8.71
2019-01-29T17:36:12.444Z,8.58
2019-01-29T17:38:45.965Z,8.85
2019-01-29T17:41:19.309Z,9.11
2019-01-29T17:43:50.925Z,9.10
2019-01-29T17:46:22.866Z,8.78
2019-01-29T17:48:56.057Z,8.76
2019-01-29T17:51:29.421Z,8.83
2019-01-29T17:54:02.557Z,8.89
2019-01-29T17:56:33.944Z,8.71
2019-01-29T17:59:06.591Z,8.70
2019-01-29T18:01:38.137Z,8.71
2019-01-29T18:04:11.327Z,8.80
2019-01-29T18:06:43.501Z,8.91
2019-01-29T18:09:15.377Z,9.01
2019-01-29T18:11:48.514Z,9.37
2019-01-29T18:14:20.301Z,9.40
2019-01-29T18:16:53.067Z,9.39
2019-01-29T18:19:27.432Z,9.28
2019-01-29T18:21:59.494Z,9.01
2019-01-29T18:24:32.250Z,8.99
2019-01-29T18:27:03.868Z,9.46
2019-01-29T18:29:36.004Z,9.29
2019-01-29T18:32:08.721Z,9.20
2019-01-29T18:34:40.052Z,9.08
2019-01-29T18:37:12.775Z,8.58
2019-01-29T18:39:44.035Z,8.49
2019-01-29T18:42:15.679Z,8.92
2019-01-29T18:44:46.981Z,8.41
2019-01-29T18:47:19.497Z,8.80
2019-01-29T18:49:51.587Z,8.63
2019-01-29T18:52:21.861Z,8.76
2019-01-29T18:54:52.260Z,8.75
2019-01-29T18:57:25.661Z,8.56
2019-01-29T18:59:58.171Z,8.17
2019-01-29T19:02:28.743Z,8.13
2019-01-29T19:05:01.677Z,8.26
2019-01-29T19:07:34.689Z,8.55
2019-01-29T19:10:06.609Z,8.68
2019-01-29T19:12:41.271Z,8.89
2019-01-29T19:15:15.201Z,8.74
2019-01-29T19:17:46.473Z,8.52
2019-01-29T19:20:24.032Z,8.47
2019-01-29T19:22:58.372Z,8.44
2019-01-29T19:25:32.929Z,8.66
2019-01-29T19:28:07.455Z,8.51
2019-01-29T19:30:39.057Z,7.98
2019-01-29T19:33:10.529Z,8.00
2019-01-29T19:35:42.018Z,8.64
2019-01-29T19:38:13.611Z,8.63
2019-01-29T19:40:46.261Z,8.15
2019-01-29T19:43:18.061Z,8.80
2019-01-29T19:45:56.497Z,8.47
2019-01-29T19:48:29.846Z,8.14
2019-01-29T19:51:00.672Z,8.14
2019-01-29T19:53:32.160Z,8.48
2019-01-29T19:56:03.498Z,7.93
2019-01-29T19:58:36.029Z,7.99
2019-01-29T20:01:08.108Z,8.17
2019-01-29T20:03:39.259Z,8.08
2019-01-29T20:06:11.696Z,7.99
2019-01-29T20:08:42.568Z,7.86
2019-01-29T20:11:21.208Z,7.68
2019-01-29T20:14:01.282Z,7.87
2019-01-29T20:16:34.526Z,7.47
2019-01-29T20:19:07.206Z,7.78
2019-01-29T20:21:39.475Z,8.32
2019-01-29T20:24:10.682Z,8.08
2019-01-29T20:26:46.031Z,7.60
2019-01-29T20:29:27.431Z,7.63
2019-01-29T20:32:00.471Z,7.94
2019-01-29T20:34:31.568Z,8.17
2019-01-29T20:37:03.980Z,7.66
2019-01-29T20:39:35.651Z,7.90
2019-01-29T20:42:07.288Z,7.01
2019-01-29T20:44:38.242Z,7.48
2019-01-29T20:47:09.485Z,7.55
2019-01-29T20:49:39.934Z,7.47
2019-01-29T20:52:12.308Z,7.38
2019-01-29T20:54:43.001Z,7.55
2019-01-29T20:57:14.169Z,7.55
2019-01-29T20:59:44.883Z,7.96
2019-01-29T21:02:17.030Z,7.79
2019-01-29T21:04:48.691Z,7.19
2019-01-29T21:07:20.795Z,7.72
2019-01-29T21:09:53.825Z,7.87
2019-01-29T21:12:24.649Z,7.69
2019-01-29T21:14:56.261Z,8.00
2019-01-29T21:17:27.964Z,7.62
2019-01-29T21:20:02.165Z,7.13
2019-01-29T21:22:33.300Z,7.70
2019-01-29T21:25:06.495Z,7.82
2019-01-29T21:27:39.750Z,7.54
2019-01-29T21:30:18.812Z,7.42
2019-01-29T21:32:50.334Z,7.57
2019-01-29T21:35:23.261Z,7.19
2019-01-29T21:38:00.855Z,6.58
2019-01-29T21:40:32.166Z,7.49
2019-01-29T21:43:02.746Z,7.06
2019-01-29T21:45:34.436Z,7.09
2019-01-29T21:48:08.756Z,6.99
2019-01-29T21:50:40.675Z,7.43
2019-01-29T21:53:12.294Z,7.48
2019-01-29T21:55:44.416Z,7.38
2019-01-29T21:58:18.108Z,6.86
2019-01-29T22:00:48.533Z,7.18
2019-01-29T22:03:19.679Z,7.45
2019-01-29T22:05:50.746Z,7.59
2019-01-29T22:08:24.123Z,6.74
2019-01-29T22:10:54.855Z,7.27
2019-01-29T22:13:25.902Z,6.85
2019-01-29T22:15:57.005Z,7.22
2019-01-29T22:18:28.418Z,6.75
2019-01-29T22:21:01.297Z,7.02
2019-01-29T22:23:33.756Z,7.57
2019-01-29T22:26:04.926Z,7.37
2019-01-29T22:28:37.000Z,7.09
2019-01-29T22:31:08.554Z,6.29
2019-01-29T22:33:39.221Z,6.43
2019-01-29T22:36:13.001Z,6.85
2019-01-29T22:38:48.200Z,6.82
2019-01-29T22:41:19.348Z,6.39
2019-01-29T22:43:49.712Z,6.53
2019-01-29T22:46:20.026Z,6.50
2019-01-29T22:48:52.305Z,6.33
2019-01-29T22:51:23.928Z,5.97
2019-01-29T22:53:55.405Z,6.20
2019-01-29T22:56:25.995Z,5.69
2019-01-29T22:58:56.892Z,6.18
2019-01-29T23:01:37.437Z,5.99
2019-01-29T23:04:24.621Z,6.38
2019-01-29T23:07:22.725Z,6.65
2019-01-29T23:09:56.981Z,6.91
2019-01-29T23:12:28.596Z,6.63
2019-01-29T23:15:02.198Z,6.94
2019-01-29T23:17:33.546Z,6.83
2019-01-29T23:20:06.544Z,6.37
2019-01-29T23:22:36.822Z,6.31
2019-01-29T23:25:10.260Z,6.13
2019-01-29T23:27:44.767Z,6.54
2019-01-29T23:30:19.696Z,6.75
2019-01-29T23:32:54.045Z,6.42
2019-01-29T23:35:25.860Z,7.17
2019-01-29T23:37:57.411Z,6.47
2019-01-29T23:40:30.118Z,5.87
2019-01-29T23:43:04.415Z,6.38
2019-01-29T23:45:35.413Z,5.87
2019-01-29T23:48:06.641Z,6.11
2019-01-29T23:50:37.854Z,6.49
2019-01-29T23:53:10.613Z,5.67
2019-01-29T23:55:45.632Z,6.13
2019-01-29T23:58:16.918Z,6.25
